createdAt,value
2023-05-29T00:01:58.034Z,4.00
2023-05-29T00:04:24.657Z,3.53
2023-05-29T00:06:51.714Z,3.95
2023-05-29T00:09:18.707Z,3.80
2023-05-29T00:11:48.290Z,4.82
2023-05-29T00:14:14.940Z,3.90
2023-05-29T00:16:41.693Z,3.50
2023-05-29T00:19:09.901Z,3.85
2023-05-29T00:21:36.442Z,3.70
2023-05-29T00:24:02.915Z,3.88
2023-05-29T00:26:29.285Z,4.15
2023-05-29T00:28:55.704Z,4.03
2023-05-29T00:31:22.270Z,4.57
2023-05-29T00:36:36.085Z,3.45
2023-05-29T00:39:02.547Z,3.88
2023-05-29T00:41:28.998Z,3.75
2023-05-29T00:43:55.695Z,3.90
2023-05-29T00:46:22.286Z,4.25
2023-05-29T00:48:50.062Z,3.97
2023-05-29T00:51:17.467Z,3.97
2023-05-29T00:53:45.157Z,3.35
2023-05-29T00:56:12.353Z,4.57
2023-05-29T00:58:39.048Z,4.20
2023-05-29T01:01:05.576Z,3.50
2023-05-29T01:03:33.401Z,4.00
2023-05-29T01:06:00.152Z,4.13
2023-05-29T01:08:31.169Z,3.20
2023-05-29T01:16:39.457Z,3.67
2023-05-29T01:19:41.971Z,3.58
2023-05-29T01:22:35.784Z,3.47
2023-05-29T01:25:22.634Z,3.90
2023-05-29T01:27:50.103Z,3.90
2023-05-29T01:30:17.530Z,4.03
2023-05-29T01:32:44.243Z,3.80
2023-05-29T01:35:10.628Z,4.57
2023-05-29T01:37:37.037Z,4.90
2023-05-29T01:40:05.381Z,4.13
2023-05-29T01:42:32.009Z,3.75
2023-05-29T01:44:58.905Z,3.58
2023-05-29T01:47:25.801Z,3.85
2023-05-29T01:49:52.881Z,3.50
2023-05-29T01:52:19.556Z,3.70
2023-05-29T01:54:46.008Z,4.80
2023-05-29T01:59:55.511Z,4.25
2023-05-29T02:02:23.986Z,3.80
2023-05-29T02:04:51.170Z,3.95
2023-05-29T02:07:17.615Z,4.18
2023-05-29T02:09:47.239Z,4.40
2023-05-29T02:12:13.606Z,4.28
2023-05-29T02:14:41.239Z,4.20
2023-05-29T02:19:48.949Z,3.83
2023-05-29T02:25:15.113Z,4.13
2023-05-29T02:27:41.563Z,3.75
2023-05-29T02:30:09.242Z,3.75
2023-05-29T02:32:35.731Z,3.30
2023-05-29T02:37:42.989Z,4.38
2023-05-29T02:40:10.390Z,3.67
2023-05-29T02:48:10.820Z,3.90
2023-05-29T02:50:37.305Z,4.28
2023-05-29T02:53:03.802Z,4.15
2023-05-29T02:55:30.288Z,3.80
2023-05-29T02:57:56.974Z,3.58
2023-05-29T03:00:23.855Z,3.50
2023-05-29T03:05:31.407Z,4.07
2023-05-29T03:08:17.466Z,3.70
2023-05-29T03:10:44.874Z,3.42
2023-05-29T03:13:11.413Z,4.28
2023-05-29T03:15:37.814Z,3.47
2023-05-29T03:18:04.353Z,3.45
2023-05-29T03:20:30.808Z,3.33
2023-05-29T03:22:57.521Z,4.10
2023-05-29T03:25:24.013Z,4.35
2023-05-29T03:27:50.469Z,3.78
2023-05-29T03:33:04.573Z,3.72
2023-05-29T03:35:44.528Z,3.90
2023-05-29T03:38:11.414Z,4.20
2023-05-29T03:40:37.856Z,3.13
2023-05-29T03:43:04.460Z,3.67
2023-05-29T03:45:30.948Z,3.60
2023-05-29T03:47:57.444Z,3.58
2023-05-29T03:50:31.440Z,4.35
2023-05-29T03:52:57.791Z,3.95
2023-05-29T03:55:24.232Z,3.25
2023-05-29T03:57:50.685Z,3.97
2023-05-29T04:00:17.600Z,3.75
2023-05-29T04:02:44.099Z,3.40
2023-05-29T04:05:10.581Z,3.47
2023-05-29T04:10:20.983Z,4.00
2023-05-29T04:12:47.461Z,3.72
2023-05-29T04:17:57.652Z,3.85
2023-05-29T04:20:43.881Z,3.13
2023-05-29T04:23:10.800Z,4.68
2023-05-29T04:28:24.535Z,3.75
2023-05-29T04:30:51.010Z,4.07
2023-05-29T04:33:18.819Z,3.97
2023-05-29T04:35:54.061Z,3.90
2023-05-29T04:38:38.043Z,3.80
2023-05-29T04:41:04.588Z,3.10
2023-05-29T04:43:31.270Z,4.40
2023-05-29T04:45:57.659Z,3.30
2023-05-29T04:48:24.180Z,3.53
2023-05-29T04:50:50.550Z,4.03
2023-05-29T04:53:17.363Z,3.08
2023-05-29T04:55:43.801Z,3.50
2023-05-29T04:58:10.170Z,3.78
2023-05-29T05:00:36.588Z,3.70
2023-05-29T05:03:03.044Z,3.38
2023-05-29T05:05:29.522Z,4.00
2023-05-29T05:07:55.903Z,3.28
2023-05-29T05:13:08.246Z,3.13
2023-05-29T05:15:34.822Z,3.50
2023-05-29T05:20:47.834Z,3.78
2023-05-29T05:23:14.302Z,3.50
2023-05-29T05:28:21.472Z,3.25
2023-05-29T05:30:48.325Z,3.05
2023-05-29T05:36:15.553Z,3.35
2023-05-29T05:38:41.933Z,4.03
2023-05-29T05:41:08.319Z,3.65
2023-05-29T05:43:34.787Z,3.65
2023-05-29T05:46:01.188Z,3.50
2023-05-29T05:48:27.714Z,3.38
2023-05-29T05:50:54.297Z,3.90
2023-05-29T05:53:22.024Z,2.92
2023-05-29T05:55:48.507Z,3.50
2023-05-29T05:58:15.000Z,3.97
2023-05-29T06:00:41.378Z,3.25
2023-05-29T06:03:07.808Z,3.25
2023-05-29T06:05:37.331Z,3.75
2023-05-29T06:08:03.795Z,3.15
2023-05-29T06:10:30.217Z,3.38
2023-05-29T06:12:56.592Z,2.97
2023-05-29T06:15:23.006Z,3.08
2023-05-29T06:17:49.955Z,3.60
2023-05-29T06:20:34.394Z,3.47
2023-05-29T06:23:01.388Z,2.83
2023-05-29T06:25:34.247Z,3.90
2023-05-29T06:28:06.841Z,3.38
2023-05-29T06:33:17.043Z,2.70
2023-05-29T06:35:43.413Z,2.83
2023-05-29T06:46:18.154Z,2.92
2023-05-29T06:48:44.973Z,3.30
2023-05-29T06:51:13.248Z,3.20
2023-05-29T06:53:40.065Z,3.22
2023-05-29T06:56:07.220Z,3.88
2023-05-29T06:58:34.315Z,2.95
2023-05-29T07:01:03.974Z,3.50
2023-05-29T07:03:32.731Z,3.40
2023-05-29T07:05:59.223Z,3.28
2023-05-29T07:08:25.984Z,3.13
2023-05-29T07:10:52.680Z,3.33
2023-05-29T07:13:19.220Z,3.25
2023-05-29T07:15:45.977Z,2.60
2023-05-29T07:18:12.469Z,2.92
2023-05-29T07:20:39.192Z,3.22
2023-05-29T07:23:05.794Z,3.15
2023-05-29T07:25:32.206Z,2.88
2023-05-29T07:28:02.877Z,3.80
2023-05-29T07:30:37.286Z,3.33
2023-05-29T07:33:03.745Z,3.33
2023-05-29T07:35:30.297Z,3.70
2023-05-29T07:37:56.736Z,3.45
2023-05-29T07:40:23.155Z,3.10
2023-05-29T07:42:49.498Z,3.00
2023-05-29T07:45:16.141Z,3.30
2023-05-29T07:47:42.557Z,2.63
2023-05-29T07:50:10.331Z,3.28
2023-05-29T07:52:36.809Z,3.15
2023-05-29T07:55:03.365Z,2.65
2023-05-29T07:57:29.933Z,3.25
2023-05-29T07:59:56.422Z,3.72
2023-05-29T08:02:22.913Z,3.05
2023-05-29T08:04:49.389Z,2.53
2023-05-29T08:07:16.109Z,3.63
2023-05-29T08:09:42.486Z,2.72
2023-05-29T08:12:08.964Z,3.10
2023-05-29T08:14:35.463Z,2.95
2023-05-29T08:17:01.857Z,2.85
2023-05-29T08:19:28.253Z,2.78
2023-05-29T08:21:54.636Z,2.90
2023-05-29T08:24:21.560Z,3.28
2023-05-29T08:26:47.954Z,3.50
2023-05-29T08:29:15.063Z,3.53
2023-05-29T08:31:41.555Z,3.10
2023-05-29T08:34:08.560Z,3.17
2023-05-29T08:36:34.941Z,3.25
2023-05-29T08:39:01.487Z,3.20
2023-05-29T08:41:39.421Z,3.15
2023-05-29T08:44:08.674Z,2.90
2023-05-29T08:46:37.349Z,2.90
2023-05-29T08:49:05.053Z,3.00
2023-05-29T08:51:35.661Z,3.70
2023-05-29T08:54:03.066Z,2.97
2023-05-29T08:56:34.928Z,2.83
2023-05-29T08:59:05.124Z,2.92
2023-05-29T09:01:36.093Z,2.65
2023-05-29T09:04:03.117Z,2.85
2023-05-29T09:06:29.635Z,3.13
2023-05-29T09:08:57.029Z,3.28
2023-05-29T09:11:23.411Z,3.13
2023-05-29T09:13:50.180Z,3.28
2023-05-29T09:16:19.832Z,3.33
2023-05-29T09:18:47.635Z,3.40
2023-05-29T09:21:28.275Z,2.83
2023-05-29T09:23:55.852Z,3.08
2023-05-29T09:26:24.115Z,3.30
2023-05-29T09:28:51.003Z,2.40
2023-05-29T09:31:24.314Z,2.78
2023-05-29T09:33:51.496Z,3.15
2023-05-29T09:36:23.151Z,2.95
2023-05-29T09:38:53.412Z,3.05
2023-05-29T09:41:24.737Z,2.72
2023-05-29T09:43:51.200Z,2.80
2023-05-29T09:46:21.240Z,2.72
2023-05-29T09:48:48.488Z,2.92
2023-05-29T09:51:26.841Z,3.35
2023-05-29T09:53:54.666Z,2.55
2023-05-29T09:56:25.591Z,2.95
2023-05-29T09:58:54.429Z,2.65
2023-05-29T10:01:21.058Z,3.25
2023-05-29T10:03:47.513Z,3.13
2023-05-29T10:06:19.280Z,3.58
2023-05-29T10:08:54.977Z,3.38
2023-05-29T10:11:25.985Z,3.08
2023-05-29T10:13:53.399Z,3.65
2023-05-29T10:16:25.122Z,3.10
2023-05-29T10:18:56.124Z,2.72
2023-05-29T10:21:25.491Z,3.25
2023-05-29T10:23:52.502Z,2.78
2023-05-29T10:26:25.148Z,3.00
2023-05-29T10:29:16.814Z,3.47
2023-05-29T10:32:13.840Z,3.30
2023-05-29T10:34:46.323Z,2.63
2023-05-29T10:37:36.536Z,3.00
2023-05-29T10:40:08.085Z,3.35
2023-05-29T10:42:51.496Z,2.72
2023-05-29T10:45:30.300Z,3.05
2023-05-29T10:48:17.238Z,3.20
2023-05-29T10:50:48.116Z,3.22
2023-05-29T10:53:20.401Z,2.80
2023-05-29T10:55:46.831Z,2.67
2023-05-29T10:58:19.209Z,2.95
2023-05-29T11:00:47.225Z,2.75
2023-05-29T11:03:19.185Z,3.00
2023-05-29T11:06:09.037Z,2.78
2023-05-29T11:08:42.806Z,2.72
2023-05-29T11:11:12.654Z,3.58
2023-05-29T11:13:41.818Z,3.65
2023-05-29T11:16:29.470Z,3.25
2023-05-29T11:18:58.259Z,3.90
2023-05-29T11:21:50.523Z,3.13
2023-05-29T11:24:28.273Z,3.08
2023-05-29T11:26:57.291Z,3.17
2023-05-29T11:29:25.796Z,3.17
2023-05-29T11:32:03.579Z,3.28
2023-05-29T11:34:31.733Z,3.38
2023-05-29T11:37:02.376Z,2.75
2023-05-29T11:39:30.150Z,2.95
2023-05-29T11:41:56.918Z,2.55
2023-05-29T11:44:27.210Z,2.70
2023-05-29T11:47:08.732Z,3.53
2023-05-29T11:49:37.861Z,3.40
2023-05-29T11:52:17.177Z,2.75
2023-05-29T11:54:48.289Z,3.80
2023-05-29T11:57:22.451Z,3.30
2023-05-29T11:59:53.041Z,3.53
2023-05-29T12:02:20.329Z,3.78
2023-05-29T12:05:01.738Z,3.28
2023-05-29T12:07:28.199Z,3.25
2023-05-29T12:09:58.570Z,2.90
2023-05-29T12:12:25.082Z,2.83
2023-05-29T12:14:52.221Z,3.05
2023-05-29T12:17:19.159Z,2.78
2023-05-29T12:19:45.585Z,2.25
2023-05-29T12:22:12.568Z,2.97
2023-05-29T12:24:43.260Z,3.15
2023-05-29T12:27:10.975Z,3.00
2023-05-29T12:29:56.101Z,3.00
2023-05-29T12:32:22.601Z,3.33
2023-05-29T12:34:52.449Z,2.85
2023-05-29T12:37:23.572Z,2.60
2023-05-29T12:40:10.112Z,2.67
2023-05-29T12:42:39.070Z,3.42
2023-05-29T12:45:08.988Z,2.88
2023-05-29T12:47:35.672Z,2.90
2023-05-29T12:50:24.306Z,3.08
2023-05-29T12:53:05.111Z,3.28
2023-05-29T12:55:40.589Z,2.80
2023-05-29T12:58:08.781Z,3.28
2023-05-29T13:00:36.107Z,2.63
2023-05-29T13:03:02.798Z,3.05
2023-05-29T13:05:29.587Z,2.75
2023-05-29T13:07:56.140Z,3.10
2023-05-29T13:10:22.676Z,3.08
2023-05-29T13:12:54.824Z,3.03
2023-05-29T13:15:22.704Z,2.85
2023-05-29T13:17:49.256Z,3.05
2023-05-29T13:20:16.408Z,3.20
2023-05-29T13:22:44.759Z,3.70
2023-05-29T13:25:14.699Z,2.75
2023-05-29T13:27:45.968Z,2.95
2023-05-29T13:30:13.703Z,2.63
2023-05-29T13:32:42.086Z,2.58
2023-05-29T13:35:09.465Z,2.75
2023-05-29T13:37:37.795Z,2.63
2023-05-29T13:40:05.998Z,2.60
2023-05-29T13:42:32.765Z,2.92
2023-05-29T13:44:59.156Z,2.42
2023-05-29T13:47:27.706Z,2.83
2023-05-29T13:49:54.807Z,2.67
2023-05-29T13:52:21.194Z,2.80
2023-05-29T13:54:47.583Z,2.35
2023-05-29T13:57:13.996Z,2.65
2023-05-29T13:59:40.585Z,2.67
2023-05-29T14:02:07.114Z,3.17
2023-05-29T14:04:33.568Z,3.55
2023-05-29T14:07:00.028Z,3.35
2023-05-29T14:09:29.727Z,2.63
2023-05-29T14:11:57.389Z,2.53
2023-05-29T14:14:24.380Z,2.75
2023-05-29T14:16:51.244Z,3.00
2023-05-29T14:19:18.934Z,2.80
2023-05-29T14:21:45.943Z,3.08
2023-05-29T14:24:13.816Z,2.25
2023-05-29T14:26:40.522Z,2.50
2023-05-29T14:29:14.197Z,2.63
2023-05-29T14:31:45.086Z,2.05
2023-05-29T14:34:13.118Z,2.53
2023-05-29T14:36:40.870Z,2.83
2023-05-29T14:39:07.741Z,2.55
2023-05-29T14:41:36.148Z,2.67
2023-05-29T14:44:03.236Z,2.35
2023-05-29T14:46:32.742Z,2.17
2023-05-29T14:49:03.044Z,2.80
2023-05-29T14:51:29.644Z,2.95
2023-05-29T14:53:56.173Z,2.70
2023-05-29T14:56:22.813Z,2.35
2023-05-29T14:58:49.353Z,3.13
2023-05-29T15:01:17.137Z,2.55
2023-05-29T15:03:43.926Z,2.53
2023-05-29T15:06:12.754Z,2.30
2023-05-29T15:08:41.881Z,2.92
2023-05-29T15:11:10.261Z,2.95
2023-05-29T15:13:37.120Z,2.63
2023-05-29T15:16:04.574Z,2.40
2023-05-29T15:18:31.999Z,2.42
2023-05-29T15:20:59.001Z,2.78
2023-05-29T15:23:26.836Z,2.90
2023-05-29T15:25:54.391Z,2.88
2023-05-29T15:28:21.464Z,3.10
2023-05-29T15:30:48.520Z,2.45
2023-05-29T15:33:14.953Z,2.97
2023-05-29T15:35:43.421Z,2.95
2023-05-29T15:38:13.235Z,2.08
2023-05-29T15:40:41.094Z,3.20
2023-05-29T15:43:07.512Z,3.60
2023-05-29T15:45:33.968Z,2.20
2023-05-29T15:48:00.616Z,2.38
2023-05-29T15:50:27.074Z,2.67
2023-05-29T15:52:55.744Z,2.63
2023-05-29T15:55:23.653Z,2.97
2023-05-29T15:57:50.364Z,2.80
2023-05-29T16:00:17.391Z,2.70
2023-05-29T16:02:44.422Z,2.72
2023-05-29T16:05:11.654Z,2.50
2023-05-29T16:07:38.388Z,2.35
2023-05-29T16:10:05.846Z,2.92
2023-05-29T16:12:32.469Z,2.50
2023-05-29T16:14:59.823Z,2.42
2023-05-29T16:17:27.780Z,2.65
2023-05-29T16:19:57.801Z,2.42
2023-05-29T16:24:54.912Z,2.70
2023-05-29T16:27:21.312Z,2.50
2023-05-29T16:29:47.865Z,2.47
2023-05-29T16:32:14.365Z,2.70
2023-05-29T16:34:40.938Z,3.42
2023-05-29T16:37:09.469Z,2.72
2023-05-29T16:39:37.495Z,2.75
2023-05-29T16:42:04.294Z,2.33
2023-05-29T16:44:30.715Z,2.85
2023-05-29T16:46:57.166Z,2.55
2023-05-29T16:49:23.606Z,3.05
2023-05-29T16:51:50.747Z,2.47
2023-05-29T16:54:17.162Z,2.53
2023-05-29T16:56:43.596Z,2.65
2023-05-29T16:59:10.233Z,2.40
2023-05-29T17:01:37.114Z,2.33
2023-05-29T17:04:03.960Z,2.80
2023-05-29T17:06:30.309Z,2.47
2023-05-29T17:08:56.707Z,3.65
2023-05-29T17:11:23.211Z,3.03
2023-05-29T17:13:49.563Z,2.75
2023-05-29T17:16:15.963Z,3.03
2023-05-29T17:18:42.360Z,2.50
2023-05-29T17:21:08.797Z,2.85
2023-05-29T17:23:35.537Z,2.45
2023-05-29T17:26:02.104Z,2.75
2023-05-29T17:28:28.586Z,2.70
2023-05-29T17:30:55.132Z,3.70
2023-05-29T17:33:21.555Z,2.50
2023-05-29T17:35:48.294Z,2.63
2023-05-29T17:38:14.757Z,2.75
2023-05-29T17:40:41.173Z,2.33
2023-05-29T17:43:07.803Z,2.20
2023-05-29T17:45:34.225Z,2.42
2023-05-29T17:48:00.894Z,2.25
2023-05-29T17:50:27.307Z,2.53
2023-05-29T17:52:53.690Z,1.90
2023-05-29T17:55:20.060Z,2.22
2023-05-29T17:57:46.414Z,2.30
2023-05-29T18:00:13.455Z,1.73
2023-05-29T18:02:39.987Z,1.83
2023-05-29T18:05:07.157Z,1.95
2023-05-29T18:07:33.564Z,2.15
2023-05-29T18:09:59.929Z,2.50
2023-05-29T18:12:37.382Z,2.13
2023-05-29T18:15:11.032Z,1.90
2023-05-29T18:17:37.539Z,2.17
2023-05-29T18:20:04.270Z,1.60
2023-05-29T18:22:30.865Z,1.90
2023-05-29T18:24:57.230Z,2.13
2023-05-29T18:27:23.655Z,2.03
2023-05-29T18:29:50.228Z,2.40
2023-05-29T18:32:16.670Z,2.15
2023-05-29T18:34:43.178Z,2.20
2023-05-29T18:37:09.679Z,2.30
2023-05-29T18:39:36.025Z,2.30
2023-05-29T18:42:02.892Z,2.13
2023-05-29T18:44:29.341Z,1.85
2023-05-29T18:46:56.110Z,2.20
2023-05-29T18:49:22.512Z,2.20
2023-05-29T18:51:48.969Z,2.10
2023-05-29T18:54:16.893Z,2.55
2023-05-29T18:56:43.289Z,2.38
2023-05-29T18:59:09.672Z,2.08
2023-05-29T19:01:37.596Z,2.17
2023-05-29T19:04:07.126Z,2.28
2023-05-29T19:06:33.629Z,2.50
2023-05-29T19:09:02.266Z,2.47
2023-05-29T19:11:29.176Z,2.28
2023-05-29T19:13:55.700Z,2.10
2023-05-29T19:16:22.701Z,2.00
2023-05-29T19:18:49.478Z,2.22
2023-05-29T19:21:16.225Z,2.08
2023-05-29T19:23:42.622Z,2.30
2023-05-29T19:26:09.035Z,2.20
2023-05-29T19:28:35.996Z,2.25
2023-05-29T19:31:02.477Z,2.83
2023-05-29T19:33:28.976Z,2.53
2023-05-29T19:35:55.462Z,1.95
2023-05-29T19:38:21.875Z,2.35
2023-05-29T19:40:48.326Z,1.80
2023-05-29T19:43:15.182Z,2.20
2023-05-29T19:45:42.368Z,2.22
2023-05-29T19:48:11.647Z,1.98
2023-05-29T19:50:38.102Z,2.33
2023-05-29T19:53:04.624Z,2.17
2023-05-29T19:55:31.251Z,2.35
2023-05-29T19:57:57.648Z,2.10
2023-05-29T20:00:24.098Z,1.90
2023-05-29T20:02:50.978Z,2.22
2023-05-29T20:05:17.444Z,1.95
2023-05-29T20:07:43.922Z,2.38
2023-05-29T20:10:10.550Z,2.00
2023-05-29T20:12:37.212Z,2.05
2023-05-29T20:15:03.882Z,2.13
2023-05-29T20:17:30.333Z,2.30
2023-05-29T20:19:56.890Z,2.05
2023-05-29T20:22:23.288Z,2.30
2023-05-29T20:24:49.705Z,2.58
2023-05-29T20:27:16.648Z,2.45
2023-05-29T20:29:43.062Z,2.47
2023-05-29T20:32:09.574Z,2.45
2023-05-29T20:34:36.164Z,3.20
2023-05-29T20:37:02.686Z,2.00
2023-05-29T20:39:35.574Z,2.53
2023-05-29T20:42:05.171Z,2.03
2023-05-29T20:44:32.617Z,2.22
2023-05-29T20:46:59.584Z,2.45
2023-05-29T20:49:26.327Z,2.70
2023-05-29T20:51:55.680Z,2.63
2023-05-29T20:54:22.277Z,1.85
2023-05-29T20:56:48.665Z,2.20
2023-05-29T20:59:15.942Z,2.70
2023-05-29T21:01:42.707Z,2.22
2023-05-29T21:04:09.281Z,2.47
2023-05-29T21:06:36.492Z,2.35
2023-05-29T21:09:05.940Z,2.10
2023-05-29T21:11:37.542Z,2.42
2023-05-29T21:14:06.414Z,2.25
2023-05-29T21:16:33.992Z,2.45
2023-05-29T21:19:00.444Z,2.33
2023-05-29T21:21:27.520Z,2.42
2023-05-29T21:23:55.991Z,2.20
2023-05-29T21:26:22.481Z,2.30
2023-05-29T21:28:48.878Z,3.05
2023-05-29T21:31:16.124Z,2.42
2023-05-29T21:33:43.102Z,2.00
2023-05-29T21:36:12.788Z,2.45
2023-05-29T21:38:39.185Z,2.78
2023-05-29T21:41:05.888Z,2.33
2023-05-29T21:43:35.901Z,2.65
2023-05-29T21:46:03.174Z,2.30
2023-05-29T21:48:29.787Z,2.70
2023-05-29T21:50:56.639Z,2.22
2023-05-29T21:53:24.913Z,2.60
2023-05-29T21:55:51.353Z,2.38
2023-05-29T21:58:17.924Z,2.33
2023-05-29T22:00:45.006Z,2.28
2023-05-29T22:03:11.900Z,2.25
2023-05-29T22:05:38.440Z,2.78
2023-05-29T22:08:04.881Z,2.42
2023-05-29T22:10:31.355Z,2.20
2023-05-29T22:13:02.411Z,2.63
2023-05-29T22:15:30.682Z,2.35
2023-05-29T22:17:58.242Z,3.03
2023-05-29T22:20:26.339Z,2.63
2023-05-29T22:22:58.670Z,2.17
2023-05-29T22:25:29.150Z,2.63
2023-05-29T22:27:56.681Z,2.67
2023-05-29T22:30:23.561Z,2.55
2023-05-29T22:32:50.049Z,2.50
2023-05-29T22:35:16.554Z,2.88
2023-05-29T22:37:43.149Z,2.58
2023-05-29T22:40:15.588Z,2.22
2023-05-29T22:42:42.036Z,2.65
2023-05-29T22:45:09.567Z,2.40
2023-05-29T22:47:36.070Z,2.72
2023-05-29T22:50:03.590Z,2.45
2023-05-29T22:52:30.092Z,2.40
2023-05-29T22:54:58.950Z,2.75
2023-05-29T22:57:25.355Z,2.92
2023-05-29T22:59:52.573Z,2.53
2023-05-29T23:02:19.273Z,2.72
2023-05-29T23:04:46.680Z,3.00
2023-05-29T23:07:13.999Z,2.47
2023-05-29T23:09:40.837Z,2.00
2023-05-29T23:12:10.195Z,3.10
2023-05-29T23:14:37.180Z,2.55
2023-05-29T23:17:04.669Z,2.90
2023-05-29T23:19:31.134Z,2.72
2023-05-29T23:21:57.574Z,2.97
2023-05-29T23:24:25.897Z,3.03
2023-05-29T23:26:55.908Z,3.08
2023-05-29T23:29:22.588Z,2.72
2023-05-29T23:31:49.286Z,2.78
2023-05-29T23:34:18.967Z,2.85
2023-05-29T23:36:46.649Z,3.08
2023-05-29T23:39:14.121Z,2.83
2023-05-29T23:41:44.802Z,2.75
2023-05-29T23:44:12.009Z,2.70
2023-05-29T23:46:39.418Z,2.75
2023-05-29T23:49:07.559Z,3.33
2023-05-29T23:51:34.381Z,3.10
2023-05-29T23:54:01.334Z,3.45
2023-05-29T23:56:28.210Z,3.25
2023-05-29T23:58:55.393Z,3.70
